sensor_id;sensor_type;location;lat;lon;timestamp;pressure;altitude;pressure_sealevel;temperature
66113;BMP280;52893;52.870;5.822;2024-02-21T00:00:53;101747.97;;;9.81
66113;BMP280;52893;52.870;5.822;2024-02-21T00:03:20;101738.66;;;9.82
66113;BMP280;52893;52.870;5.822;2024-02-21T00:05:48;101735.22;;;9.76
66113;BMP280;52893;52.870;5.822;2024-02-21T00:08:15;101737.28;;;9.85
66113;BMP280;52893;52.870;5.822;2024-02-21T00:10:43;101724.56;;;9.80
66113;BMP280;52893;52.870;5.822;2024-02-21T00:13:11;101723.44;;;9.81
66113;BMP280;52893;52.870;5.822;2024-02-21T00:15:38;101707.22;;;9.71
66113;BMP280;52893;52.870;5.822;2024-02-21T00:18:05;101707.91;;;9.63
66113;BMP280;52893;52.870;5.822;2024-02-21T00:20:33;101696.78;;;9.59
66113;BMP280;52893;52.870;5.822;2024-02-21T00:23:00;101677.56;;;9.51
66113;BMP280;52893;52.870;5.822;2024-02-21T00:25:27;101666.13;;;9.49
66113;BMP280;52893;52.870;5.822;2024-02-21T00:27:56;101669.69;;;9.49
66113;BMP280;52893;52.870;5.822;2024-02-21T00:30:23;101663.41;;;9.49
66113;BMP280;52893;52.870;5.822;2024-02-21T00:32:50;101658.56;;;9.46
66113;BMP280;52893;52.870;5.822;2024-02-21T00:35:18;101637.34;;;9.43
66113;BMP280;52893;52.870;5.822;2024-02-21T00:37:45;101637.94;;;9.40
66113;BMP280;52893;52.870;5.822;2024-02-21T00:40:12;101634.91;;;9.41
66113;BMP280;52893;52.870;5.822;2024-02-21T00:42:42;101616.81;;;9.31
66113;BMP280;52893;52.870;5.822;2024-02-21T00:45:11;101604.81;;;9.32
66113;BMP280;52893;52.870;5.822;2024-02-21T00:47:38;101587.41;;;9.28
66113;BMP280;52893;52.870;5.822;2024-02-21T00:50:07;101589.84;;;9.30
66113;BMP280;52893;52.870;5.822;2024-02-21T00:52:35;101583.38;;;9.26
66113;BMP280;52893;52.870;5.822;2024-02-21T00:55:04;101578.13;;;9.29
66113;BMP280;52893;52.870;5.822;2024-02-21T00:57:31;101588.00;;;9.25
66113;BMP280;52893;52.870;5.822;2024-02-21T00:59:59;101578.94;;;9.30
66113;BMP280;52893;52.870;5.822;2024-02-21T01:02:27;101582.28;;;9.27
66113;BMP280;52893;52.870;5.822;2024-02-21T01:04:57;101580.88;;;9.29
66113;BMP280;52893;52.870;5.822;2024-02-21T01:07:24;101577.31;;;9.29
66113;BMP280;52893;52.870;5.822;2024-02-21T01:09:51;101568.06;;;9.30
66113;BMP280;52893;52.870;5.822;2024-02-21T01:12:19;101579.97;;;9.34
66113;BMP280;52893;52.870;5.822;2024-02-21T01:14:46;101587.88;;;9.35
66113;BMP280;52893;52.870;5.822;2024-02-21T01:17:15;101587.25;;;9.39
66113;BMP280;52893;52.870;5.822;2024-02-21T01:19:46;101582.41;;;9.35
66113;BMP280;52893;52.870;5.822;2024-02-21T01:22:13;101598.09;;;9.44
66113;BMP280;52893;52.870;5.822;2024-02-21T01:24:40;101602.72;;;9.43
66113;BMP280;52893;52.870;5.822;2024-02-21T01:27:08;101610.28;;;9.46
66113;BMP280;52893;52.870;5.822;2024-02-21T01:29:35;101612.53;;;9.44
66113;BMP280;52893;52.870;5.822;2024-02-21T01:32:03;101610.53;;;9.50
66113;BMP280;52893;52.870;5.822;2024-02-21T01:34:30;101602.44;;;9.45
66113;BMP280;52893;52.870;5.822;2024-02-21T01:36:59;101589.91;;;9.44
66113;BMP280;52893;52.870;5.822;2024-02-21T01:39:30;101598.59;;;9.46
66113;BMP280;52893;52.870;5.822;2024-02-21T01:41:57;101592.63;;;9.44
66113;BMP280;52893;52.870;5.822;2024-02-21T01:44:25;101594.19;;;9.50
66113;BMP280;52893;52.870;5.822;2024-02-21T01:46:52;101598.00;;;9.49
66113;BMP280;52893;52.870;5.822;2024-02-21T01:49:20;101605.06;;;9.50
66113;BMP280;52893;52.870;5.822;2024-02-21T01:51:49;101596.81;;;9.55
66113;BMP280;52893;52.870;5.822;2024-02-21T01:54:18;101592.47;;;9.54
66113;BMP280;52893;52.870;5.822;2024-02-21T01:56:46;101566.56;;;9.38
66113;BMP280;52893;52.870;5.822;2024-02-21T01:59:15;101572.94;;;9.47
66113;BMP280;52893;52.870;5.822;2024-02-21T02:01:44;101568.91;;;9.44
66113;BMP280;52893;52.870;5.822;2024-02-21T02:04:12;101575.38;;;9.48
66113;BMP280;52893;52.870;5.822;2024-02-21T02:06:39;101559.63;;;9.45
66113;BMP280;52893;52.870;5.822;2024-02-21T02:09:07;101567.59;;;9.42
66113;BMP280;52893;52.870;5.822;2024-02-21T02:11:36;101555.56;;;9.43
66113;BMP280;52893;52.870;5.822;2024-02-21T02:14:03;101554.78;;;9.42
66113;BMP280;52893;52.870;5.822;2024-02-21T02:16:30;101548.53;;;9.42
66113;BMP280;52893;52.870;5.822;2024-02-21T02:18:58;101559.13;;;9.43
66113;BMP280;52893;52.870;5.822;2024-02-21T02:21:29;101547.13;;;9.44
66113;BMP280;52893;52.870;5.822;2024-02-21T02:23:58;101542.16;;;9.32
66113;BMP280;52893;52.870;5.822;2024-02-21T02:26:26;101555.56;;;9.43
66113;BMP280;52893;52.870;5.822;2024-02-21T02:28:53;101547.94;;;9.45
66113;BMP280;52893;52.870;5.822;2024-02-21T02:31:21;101538.84;;;9.49
66113;BMP280;52893;52.870;5.822;2024-02-21T02:33:48;101548.13;;;9.48
66113;BMP280;52893;52.870;5.822;2024-02-21T02:36:16;101534.78;;;9.47
66113;BMP280;52893;52.870;5.822;2024-02-21T02:38:43;101531.50;;;9.50
66113;BMP280;52893;52.870;5.822;2024-02-21T02:41:12;101523.91;;;9.47
66113;BMP280;52893;52.870;5.822;2024-02-21T02:43:39;101528.47;;;9.51
66113;BMP280;52893;52.870;5.822;2024-02-21T02:46:06;101517.06;;;9.49
66113;BMP280;52893;52.870;5.822;2024-02-21T02:48:34;101517.34;;;9.48
66113;BMP280;52893;52.870;5.822;2024-02-21T02:51:01;101522.78;;;9.48
66113;BMP280;52893;52.870;5.822;2024-02-21T02:53:28;101505.13;;;9.45
66113;BMP280;52893;52.870;5.822;2024-02-21T02:55:55;101500.50;;;9.46
66113;BMP280;52893;52.870;5.822;2024-02-21T02:58:24;101506.44;;;9.48
66113;BMP280;52893;52.870;5.822;2024-02-21T03:00:51;101497.84;;;9.41
66113;BMP280;52893;52.870;5.822;2024-02-21T03:03:19;101514.13;;;9.46
66113;BMP280;52893;52.870;5.822;2024-02-21T03:05:46;101510.78;;;9.49
66113;BMP280;52893;52.870;5.822;2024-02-21T03:08:13;101510.28;;;9.47
66113;BMP280;52893;52.870;5.822;2024-02-21T03:10:41;101505.94;;;9.46
66113;BMP280;52893;52.870;5.822;2024-02-21T03:13:08;101504.31;;;9.45
66113;BMP280;52893;52.870;5.822;2024-02-21T03:15:35;101509.78;;;9.45
66113;BMP280;52893;52.870;5.822;2024-02-21T03:18:03;101498.06;;;9.44
66113;BMP280;52893;52.870;5.822;2024-02-21T03:20:31;101499.97;;;9.44
66113;BMP280;52893;52.870;5.822;2024-02-21T03:22:58;101498.06;;;9.44
66113;BMP280;52893;52.870;5.822;2024-02-21T03:25:25;101491.19;;;9.47
66113;BMP280;52893;52.870;5.822;2024-02-21T03:27:52;101485.75;;;9.47
66113;BMP280;52893;52.870;5.822;2024-02-21T03:30:20;101483.34;;;9.45
66113;BMP280;52893;52.870;5.822;2024-02-21T03:32:48;101485.53;;;9.43
66113;BMP280;52893;52.870;5.822;2024-02-21T03:35:15;101475.06;;;9.50
66113;BMP280;52893;52.870;5.822;2024-02-21T03:37:44;101476.47;;;9.48
66113;BMP280;52893;52.870;5.822;2024-02-21T03:40:12;101480.28;;;9.47
66113;BMP280;52893;52.870;5.822;2024-02-21T03:42:39;101483.44;;;9.54
66113;BMP280;52893;52.870;5.822;2024-02-21T03:45:07;101469.31;;;9.52
66113;BMP280;52893;52.870;5.822;2024-02-21T03:47:35;101472.34;;;9.50
66113;BMP280;52893;52.870;5.822;2024-02-21T03:50:04;101464.38;;;9.54
66113;BMP280;52893;52.870;5.822;2024-02-21T03:52:31;101469.44;;;9.60
66113;BMP280;52893;52.870;5.822;2024-02-21T03:54:59;101471.53;;;9.63
66113;BMP280;52893;52.870;5.822;2024-02-21T03:57:26;101470.03;;;9.57
66113;BMP280;52893;52.870;5.822;2024-02-21T03:59:53;101474.38;;;9.58
66113;BMP280;52893;52.870;5.822;2024-02-21T04:02:20;101468.50;;;9.51
66113;BMP280;52893;52.870;5.822;2024-02-21T04:04:48;101460.53;;;9.55
66113;BMP280;52893;52.870;5.822;2024-02-21T04:07:16;101470.44;;;9.51
66113;BMP280;52893;52.870;5.822;2024-02-21T04:09:44;101461.22;;;9.47
66113;BMP280;52893;52.870;5.822;2024-02-21T04:12:11;101481.34;;;9.51
66113;BMP280;52893;52.870;5.822;2024-02-21T04:14:38;101483.75;;;9.52
66113;BMP280;52893;52.870;5.822;2024-02-21T04:17:05;101483.44;;;9.54
66113;BMP280;52893;52.870;5.822;2024-02-21T04:19:33;101483.66;;;9.57
66113;BMP280;52893;52.870;5.822;2024-02-21T04:22:00;101480.63;;;9.59
66113;BMP280;52893;52.870;5.822;2024-02-21T04:24:29;101471.84;;;9.62
66113;BMP280;52893;52.870;5.822;2024-02-21T04:26:56;101465.09;;;9.59
66113;BMP280;52893;52.870;5.822;2024-02-21T04:29:23;101454.47;;;9.58
66113;BMP280;52893;52.870;5.822;2024-02-21T04:31:51;101456.69;;;9.56
66113;BMP280;52893;52.870;5.822;2024-02-21T04:34:18;101460.53;;;9.55
66113;BMP280;52893;52.870;5.822;2024-02-21T04:36:45;101457.72;;;9.60
66113;BMP280;52893;52.870;5.822;2024-02-21T04:39:12;101460.34;;;9.51
66113;BMP280;52893;52.870;5.822;2024-02-21T04:41:41;101458.31;;;9.57
66113;BMP280;52893;52.870;5.822;2024-02-21T04:44:08;101465.59;;;9.61
66113;BMP280;52893;52.870;5.822;2024-02-21T04:46:35;101449.63;;;9.55
66113;BMP280;52893;52.870;5.822;2024-02-21T04:49:03;101457.50;;;9.56
66113;BMP280;52893;52.870;5.822;2024-02-21T04:51:30;101458.31;;;9.57
66113;BMP280;52893;52.870;5.822;2024-02-21T04:53:57;101449.63;;;9.55
66113;BMP280;52893;52.870;5.822;2024-02-21T04:56:25;101458.31;;;9.57
66113;BMP280;52893;52.870;5.822;2024-02-21T04:58:53;101454.38;;;9.63
66113;BMP280;52893;52.870;5.822;2024-02-21T05:01:21;101453.91;;;9.61
66113;BMP280;52893;52.870;5.822;2024-02-21T05:03:48;101447.09;;;9.58
66113;BMP280;52893;52.870;5.822;2024-02-21T05:06:15;101448.72;;;9.59
66113;BMP280;52893;52.870;5.822;2024-02-21T05:08:43;101450.13;;;9.57
66113;BMP280;52893;52.870;5.822;2024-02-21T05:11:10;101453.56;;;9.62
66113;BMP280;52893;52.870;5.822;2024-02-21T05:13:37;101458.13;;;9.67
66113;BMP280;52893;52.870;5.822;2024-02-21T05:16:06;101453.25;;;9.64
66113;BMP280;52893;52.870;5.822;2024-02-21T05:18:33;101440.84;;;9.58
66113;BMP280;52893;52.870;5.822;2024-02-21T05:21:01;101440.31;;;9.56
66113;BMP280;52893;52.870;5.822;2024-02-21T05:23:28;101431.06;;;9.57
66113;BMP280;52893;52.870;5.822;2024-02-21T05:25:55;101428.63;;;9.55
66113;BMP280;52893;52.870;5.822;2024-02-21T05:28:22;101430.94;;;9.62
66113;BMP280;52893;52.870;5.822;2024-02-21T05:30:49;101426.94;;;9.59
66113;BMP280;52893;52.870;5.822;2024-02-21T05:33:18;101402.59;;;9.49
66113;BMP280;52893;52.870;5.822;2024-02-21T05:35:47;101415.72;;;9.61
66113;BMP280;52893;52.870;5.822;2024-02-21T05:38:15;101397.75;;;9.60
66113;BMP280;52893;52.870;5.822;2024-02-21T05:40:44;101396.53;;;9.52
66113;BMP280;52893;52.870;5.822;2024-02-21T05:43:18;101388.06;;;9.54
66113;BMP280;52893;52.870;5.822;2024-02-21T05:45:45;101388.75;;;9.59
66113;BMP280;52893;52.870;5.822;2024-02-21T05:48:14;101388.25;;;9.57
66113;BMP280;52893;52.870;5.822;2024-02-21T05:50:45;101390.97;;;9.57
66113;BMP280;52893;52.870;5.822;2024-02-21T05:53:15;101378.38;;;9.61
66113;BMP280;52893;52.870;5.822;2024-02-21T05:55:45;101376.44;;;9.62
66113;BMP280;52893;52.870;5.822;2024-02-21T05:58:13;101363.44;;;9.59
66113;BMP280;52893;52.870;5.822;2024-02-21T06:00:40;101357.75;;;9.55
66113;BMP280;52893;52.870;5.822;2024-02-21T06:03:07;101354.16;;;9.60
66113;BMP280;52893;52.870;5.822;2024-02-21T06:05:37;101349.78;;;9.59
66113;BMP280;52893;52.870;5.822;2024-02-21T06:08:08;101336.28;;;9.54
66113;BMP280;52893;52.870;5.822;2024-02-21T06:10:36;101341.41;;;9.55
66113;BMP280;52893;52.870;5.822;2024-02-21T06:13:03;101344.94;;;9.56
66113;BMP280;52893;52.870;5.822;2024-02-21T06:15:32;101337.06;;;9.54
66113;BMP280;52893;52.870;5.822;2024-02-21T06:18:02;101338.50;;;9.52
66113;BMP280;52893;52.870;5.822;2024-02-21T06:20:29;101340.72;;;9.50
66113;BMP280;52893;52.870;5.822;2024-02-21T06:22:57;101335.78;;;9.52
66113;BMP280;52893;52.870;5.822;2024-02-21T06:25:25;101334.16;;;9.51
66113;BMP280;52893;52.870;5.822;2024-02-21T06:27:53;101334.75;;;9.48
66113;BMP280;52893;52.870;5.822;2024-02-21T06:30:20;101336.88;;;9.51
66113;BMP280;52893;52.870;5.822;2024-02-21T06:32:47;101338.81;;;9.50
66113;BMP280;52893;52.870;5.822;2024-02-21T06:35:14;101338.28;;;9.48
66113;BMP280;52893;52.870;5.822;2024-02-21T06:37:42;101341.22;;;9.52
66113;BMP280;52893;52.870;5.822;2024-02-21T06:40:11;101346.84;;;9.55
66113;BMP280;52893;52.870;5.822;2024-02-21T06:42:40;101353.09;;;9.56
66113;BMP280;52893;52.870;5.822;2024-02-21T06:45:08;101348.09;;;9.49
66113;BMP280;52893;52.870;5.822;2024-02-21T06:47:35;101361.59;;;9.54
66113;BMP280;52893;52.870;5.822;2024-02-21T06:50:03;101361.28;;;9.56
66113;BMP280;52893;52.870;5.822;2024-02-21T06:52:30;101354.25;;;9.55
66113;BMP280;52893;52.870;5.822;2024-02-21T06:54:58;101359.59;;;9.60
66113;BMP280;52893;52.870;5.822;2024-02-21T06:57:25;101356.34;;;9.58
66113;BMP280;52893;52.870;5.822;2024-02-21T06:59:53;101348.78;;;9.55
66113;BMP280;52893;52.870;5.822;2024-02-21T07:02:21;101361.81;;;9.58
66113;BMP280;52893;52.870;5.822;2024-02-21T07:04:48;101353.91;;;9.56
66113;BMP280;52893;52.870;5.822;2024-02-21T07:07:15;101353.09;;;9.56
66113;BMP280;52893;52.870;5.822;2024-02-21T07:09:42;101352.00;;;9.57
66113;BMP280;52893;52.870;5.822;2024-02-21T07:12:10;101352.22;;;9.60
66113;BMP280;52893;52.870;5.822;2024-02-21T07:14:37;101346.94;;;9.64
66113;BMP280;52893;52.870;5.822;2024-02-21T07:17:06;101345.84;;;9.65
66113;BMP280;52893;52.870;5.822;2024-02-21T07:19:33;101336.97;;;9.59
66113;BMP280;52893;52.870;5.822;2024-02-21T07:22:01;101330.00;;;9.67
66113;BMP280;52893;52.870;5.822;2024-02-21T07:24:28;101318.19;;;9.58
66113;BMP280;52893;52.870;5.822;2024-02-21T07:26:57;101325.78;;;9.61
66113;BMP280;52893;52.870;5.822;2024-02-21T07:29:30;101330.19;;;9.57
66113;BMP280;52893;52.870;5.822;2024-02-21T07:31:57;101305.19;;;9.55
66113;BMP280;52893;52.870;5.822;2024-02-21T07:34:26;101317.28;;;9.62
66113;BMP280;52893;52.870;5.822;2024-02-21T07:36:53;101317.28;;;9.62
66113;BMP280;52893;52.870;5.822;2024-02-21T07:39:20;101319.69;;;9.64
66113;BMP280;52893;52.870;5.822;2024-02-21T07:41:48;101325.66;;;9.66
66113;BMP280;52893;52.870;5.822;2024-02-21T07:44:15;101320.00;;;9.62
66113;BMP280;52893;52.870;5.822;2024-02-21T07:46:42;101316.94;;;9.64
66113;BMP280;52893;52.870;5.822;2024-02-21T07:49:10;101313.63;;;9.67
66113;BMP280;52893;52.870;5.822;2024-02-21T07:51:38;101322.63;;;9.67
66113;BMP280;52893;52.870;5.822;2024-02-21T07:54:05;101304.28;;;9.59
66113;BMP280;52893;52.870;5.822;2024-02-21T07:56:33;101310.31;;;9.70
66113;BMP280;52893;52.870;5.822;2024-02-21T07:59:00;101315.25;;;9.68
66113;BMP280;52893;52.870;5.822;2024-02-21T08:01:27;101306.06;;;9.77
66113;BMP280;52893;52.870;5.822;2024-02-21T08:03:55;101309.88;;;9.76
66113;BMP280;52893;52.870;5.822;2024-02-21T08:06:22;101309.28;;;9.66
66113;BMP280;52893;52.870;5.822;2024-02-21T08:08:50;101304.25;;;9.73
66113;BMP280;52893;52.870;5.822;2024-02-21T08:11:18;101310.41;;;9.65
66113;BMP280;52893;52.870;5.822;2024-02-21T08:13:46;101308.69;;;9.69
66113;BMP280;52893;52.870;5.822;2024-02-21T08:16:13;101310.31;;;9.70
66113;BMP280;52893;52.870;5.822;2024-02-21T08:18:40;101314.63;;;9.71
66113;BMP280;52893;52.870;5.822;2024-02-21T08:21:10;101304.66;;;9.66
66113;BMP280;52893;52.870;5.822;2024-02-21T08:23:37;101296.69;;;9.70
66113;BMP280;52893;52.870;5.822;2024-02-21T08:26:06;101303.63;;;9.76
66113;BMP280;52893;52.870;5.822;2024-02-21T08:28:33;101297.66;;;9.74
66113;BMP280;52893;52.870;5.822;2024-02-21T08:30:59;101285.06;;;9.78
66113;BMP280;52893;52.870;5.822;2024-02-21T08:33:26;101271.81;;;9.71
66113;BMP280;52893;52.870;5.822;2024-02-21T08:35:55;101279.59;;;9.78
66113;BMP280;52893;52.870;5.822;2024-02-21T08:38:23;101286.00;;;9.82
66113;BMP280;52893;52.870;5.822;2024-02-21T08:40:51;101281.00;;;9.75
66113;BMP280;52893;52.870;5.822;2024-02-21T08:43:19;101277.84;;;9.82
66113;BMP280;52893;52.870;5.822;2024-02-21T08:45:46;101273.41;;;9.86
66113;BMP280;52893;52.870;5.822;2024-02-21T08:48:14;101269.28;;;9.89
66113;BMP280;52893;52.870;5.822;2024-02-21T08:50:41;101256.75;;;9.74
66113;BMP280;52893;52.870;5.822;2024-02-21T08:53:08;101260.13;;;9.93
66113;BMP280;52893;52.870;5.822;2024-02-21T08:55:36;101269.44;;;9.92
66113;BMP280;52893;52.870;5.822;2024-02-21T08:58:03;101271.03;;;9.93
66113;BMP280;52893;52.870;5.822;2024-02-21T09:00:32;101273.78;;;9.93
66113;BMP280;52893;52.870;5.822;2024-02-21T09:02:59;101257.22;;;9.90
66113;BMP280;52893;52.870;5.822;2024-02-21T09:05:26;101268.22;;;9.98
66113;BMP280;52893;52.870;5.822;2024-02-21T09:07:54;101276.28;;;10.03
66113;BMP280;52893;52.870;5.822;2024-02-21T09:10:21;101263.59;;;9.99
66113;BMP280;52893;52.870;5.822;2024-02-21T09:12:48;101270.44;;;9.96
66113;BMP280;52893;52.870;5.822;2024-02-21T09:15:16;101267.28;;;10.03
66113;BMP280;52893;52.870;5.822;2024-02-21T09:17:44;101246.50;;;9.93
66113;BMP280;52893;52.870;5.822;2024-02-21T09:20:12;101259.09;;;10.03
66113;BMP280;52893;52.870;5.822;2024-02-21T09:22:42;101263.75;;;10.02
66113;BMP280;52893;52.870;5.822;2024-02-21T09:25:09;101268.44;;;10.10
66113;BMP280;52893;52.870;5.822;2024-02-21T09:27:37;101248.19;;;10.03
66113;BMP280;52893;52.870;5.822;2024-02-21T09:30:06;101259.66;;;10.13
66113;BMP280;52893;52.870;5.822;2024-02-21T09:32:33;101261.53;;;10.04
66113;BMP280;52893;52.870;5.822;2024-02-21T09:35:02;101254.00;;;10.10
66113;BMP280;52893;52.870;5.822;2024-02-21T09:37:31;101245.38;;;10.16
66113;BMP280;52893;52.870;5.822;2024-02-21T09:39:58;101244.56;;;10.07
66113;BMP280;52893;52.870;5.822;2024-02-21T09:42:31;101221.16;;;9.93
66113;BMP280;52893;52.870;5.822;2024-02-21T09:45:02;101227.97;;;10.04
66113;BMP280;52893;52.870;5.822;2024-02-21T09:47:37;101221.88;;;9.98
66113;BMP280;52893;52.870;5.822;2024-02-21T09:50:07;101189.75;;;9.95
66113;BMP280;52893;52.870;5.822;2024-02-21T09:52:36;101213.22;;;10.05
66113;BMP280;52893;52.870;5.822;2024-02-21T09:55:04;101206.97;;;10.04
66113;BMP280;52893;52.870;5.822;2024-02-21T09:57:34;101196.91;;;10.13
66113;BMP280;52893;52.870;5.822;2024-02-21T10:00:01;101190.44;;;10.09
66113;BMP280;52893;52.870;5.822;2024-02-21T10:02:39;101186.19;;;10.17
66113;BMP280;52893;52.870;5.822;2024-02-21T10:05:07;101189.72;;;10.17
66113;BMP280;52893;52.870;5.822;2024-02-21T10:07:35;101189.59;;;10.22
66113;BMP280;52893;52.870;5.822;2024-02-21T10:10:02;101178.09;;;10.34
66113;BMP280;52893;52.870;5.822;2024-02-21T10:12:30;101177.44;;;10.37
66113;BMP280;52893;52.870;5.822;2024-02-21T10:15:00;101168.03;;;10.52
66113;BMP280;52893;52.870;5.822;2024-02-21T10:17:28;101179.63;;;10.66
66113;BMP280;52893;52.870;5.822;2024-02-21T10:20:02;101170.34;;;10.76
66113;BMP280;52893;52.870;5.822;2024-02-21T10:22:35;101167.94;;;10.65
66113;BMP280;52893;52.870;5.822;2024-02-21T10:25:08;101176.50;;;10.73
66113;BMP280;52893;52.870;5.822;2024-02-21T10:27:36;101154.63;;;10.64
66113;BMP280;52893;52.870;5.822;2024-02-21T10:30:05;101160.53;;;10.75
66113;BMP280;52893;52.870;5.822;2024-02-21T10:32:32;101157.41;;;10.81
66113;BMP280;52893;52.870;5.822;2024-02-21T10:35:03;101154.94;;;10.71
66113;BMP280;52893;52.870;5.822;2024-02-21T10:37:31;101160.13;;;10.81
66113;BMP280;52893;52.870;5.822;2024-02-21T10:40:00;101162.34;;;10.70
66113;BMP280;52893;52.870;5.822;2024-02-21T10:42:29;101153.13;;;10.66
66113;BMP280;52893;52.870;5.822;2024-02-21T10:45:01;101152.00;;;10.59
66113;BMP280;52893;52.870;5.822;2024-02-21T10:47:32;101138.03;;;10.60
66113;BMP280;52893;52.870;5.822;2024-02-21T10:50:03;101132.09;;;10.67
66113;BMP280;52893;52.870;5.822;2024-02-21T10:55:26;101127.75;;;10.57
66113;BMP280;52893;52.870;5.822;2024-02-21T10:57:58;101130.94;;;10.51
66113;BMP280;52893;52.870;5.822;2024-02-21T11:00:26;101116.69;;;10.54
66113;BMP280;52893;52.870;5.822;2024-02-21T11:02:56;101111.56;;;10.61
66113;BMP280;52893;52.870;5.822;2024-02-21T11:05:24;101103.03;;;10.54
66113;BMP280;52893;52.870;5.822;2024-02-21T11:07:51;101106.69;;;10.49
66113;BMP280;52893;52.870;5.822;2024-02-21T11:10:25;101057.34;;;10.29
66113;BMP280;52893;52.870;5.822;2024-02-21T11:12:53;101095.69;;;10.63
66113;BMP280;52893;52.870;5.822;2024-02-21T11:15:25;101076.53;;;10.46
66113;BMP280;52893;52.870;5.822;2024-02-21T11:17:55;101083.75;;;10.50
66113;BMP280;52893;52.870;5.822;2024-02-21T11:20:32;101083.94;;;10.54
66113;BMP280;52893;52.870;5.822;2024-02-21T11:23:00;101082.13;;;10.49
66113;BMP280;52893;52.870;5.822;2024-02-21T11:25:29;101036.22;;;10.51
66113;BMP280;52893;52.870;5.822;2024-02-21T11:28:00;101075.78;;;10.80
66113;BMP280;52893;52.870;5.822;2024-02-21T11:30:29;101060.81;;;10.77
66113;BMP280;52893;52.870;5.822;2024-02-21T11:33:00;101061.31;;;10.79
66113;BMP280;52893;52.870;5.822;2024-02-21T11:35:31;101058.75;;;10.74
66113;BMP280;52893;52.870;5.822;2024-02-21T11:38:09;101056.97;;;10.69
66113;BMP280;52893;52.870;5.822;2024-02-21T11:40:41;101024.50;;;10.68
66113;BMP280;52893;52.870;5.822;2024-02-21T11:43:08;101019.38;;;10.75
66113;BMP280;52893;52.870;5.822;2024-02-21T11:45:35;101018.13;;;10.81
66113;BMP280;52893;52.870;5.822;2024-02-21T11:48:05;101016.97;;;10.82
66113;BMP280;52893;52.870;5.822;2024-02-21T11:50:34;100989.66;;;10.82
66113;BMP280;52893;52.870;5.822;2024-02-21T11:53:01;100994.00;;;10.83
66113;BMP280;52893;52.870;5.822;2024-02-21T11:55:29;100982.44;;;10.69
66113;BMP280;52893;52.870;5.822;2024-02-21T11:57:57;100991.63;;;10.82
66113;BMP280;52893;52.870;5.822;2024-02-21T12:00:25;100994.66;;;10.63
66113;BMP280;52893;52.870;5.822;2024-02-21T12:02:53;101001.56;;;10.69
66113;BMP280;52893;52.870;5.822;2024-02-21T12:05:26;100994.47;;;10.51
66113;BMP280;52893;52.870;5.822;2024-02-21T12:07:54;100990.78;;;10.47
66113;BMP280;52893;52.870;5.822;2024-02-21T12:10:22;100988.03;;;10.38
66113;BMP280;52893;52.870;5.822;2024-02-21T12:12:49;100975.34;;;10.34
66113;BMP280;52893;52.870;5.822;2024-02-21T12:15:19;100941.63;;;10.12
66113;BMP280;52893;52.870;5.822;2024-02-21T12:17:47;100968.94;;;10.30
66113;BMP280;52893;52.870;5.822;2024-02-21T12:20:14;100966.88;;;10.44
66113;BMP280;52893;52.870;5.822;2024-02-21T12:22:41;100959.63;;;10.39
66113;BMP280;52893;52.870;5.822;2024-02-21T12:25:16;100950.19;;;10.37
66113;BMP280;52893;52.870;5.822;2024-02-21T12:27:44;100943.56;;;10.38
66113;BMP280;52893;52.870;5.822;2024-02-21T12:30:12;100936.19;;;10.47
66113;BMP280;52893;52.870;5.822;2024-02-21T12:32:41;100925.63;;;10.54
66113;BMP280;52893;52.870;5.822;2024-02-21T12:35:08;100910.97;;;10.50
66113;BMP280;52893;52.870;5.822;2024-02-21T12:37:36;100902.47;;;10.60
66113;BMP280;52893;52.870;5.822;2024-02-21T12:40:05;100860.28;;;10.40
66113;BMP280;52893;52.870;5.822;2024-02-21T12:42:33;100894.91;;;10.74
66113;BMP280;52893;52.870;5.822;2024-02-21T12:45:01;100874.97;;;10.91
66113;BMP280;52893;52.870;5.822;2024-02-21T12:47:29;100876.22;;;10.93
66113;BMP280;52893;52.870;5.822;2024-02-21T12:49:57;100840.41;;;10.95
66113;BMP280;52893;52.870;5.822;2024-02-21T12:52:25;100828.69;;;10.94
66113;BMP280;52893;52.870;5.822;2024-02-21T12:54:52;100807.47;;;11.00
66113;BMP280;52893;52.870;5.822;2024-02-21T12:57:22;100816.09;;;11.10
66113;BMP280;52893;52.870;5.822;2024-02-21T12:59:49;100813.72;;;11.00
66113;BMP280;52893;52.870;5.822;2024-02-21T13:02:17;100790.72;;;11.10
66113;BMP280;52893;52.870;5.822;2024-02-21T13:04:46;100789.56;;;11.20
66113;BMP280;52893;52.870;5.822;2024-02-21T13:07:14;100770.56;;;11.14
66113;BMP280;52893;52.870;5.822;2024-02-21T13:09:42;100765.06;;;11.23
66113;BMP280;52893;52.870;5.822;2024-02-21T13:12:09;100768.28;;;11.25
66113;BMP280;52893;52.870;5.822;2024-02-21T13:14:37;100756.88;;;11.23
66113;BMP280;52893;52.870;5.822;2024-02-21T13:17:05;100739.41;;;11.15
66113;BMP280;52893;52.870;5.822;2024-02-21T13:19:32;100768.66;;;11.15
66113;BMP280;52893;52.870;5.822;2024-02-21T13:21:59;100754.84;;;11.20
66113;BMP280;52893;52.870;5.822;2024-02-21T13:24:29;100755.16;;;11.19
66113;BMP280;52893;52.870;5.822;2024-02-21T13:26:56;100744.81;;;10.95
66113;BMP280;52893;52.870;5.822;2024-02-21T13:29:23;100736.81;;;10.90
66113;BMP280;52893;52.870;5.822;2024-02-21T13:31:51;100717.81;;;10.93
66113;BMP280;52893;52.870;5.822;2024-02-21T13:34:18;100723.78;;;10.95
66113;BMP280;52893;52.870;5.822;2024-02-21T13:36:45;100722.44;;;10.81
66113;BMP280;52893;52.870;5.822;2024-02-21T13:39:13;100716.66;;;10.74
66113;BMP280;52893;52.870;5.822;2024-02-21T13:41:43;100711.34;;;10.77
66113;BMP280;52893;52.870;5.822;2024-02-21T13:44:10;100693.66;;;10.83
66113;BMP280;52893;52.870;5.822;2024-02-21T13:46:38;100686.97;;;10.72
66113;BMP280;52893;52.870;5.822;2024-02-21T13:49:05;100690.66;;;10.67
66113;BMP280;52893;52.870;5.822;2024-02-21T13:51:33;100674.09;;;10.81
66113;BMP280;52893;52.870;5.822;2024-02-21T13:54:02;100664.91;;;10.77
66113;BMP280;52893;52.870;5.822;2024-02-21T13:56:30;100659.66;;;10.72
66113;BMP280;52893;52.870;5.822;2024-02-21T13:58:59;100650.34;;;10.73
66113;BMP280;52893;52.870;5.822;2024-02-21T14:01:27;100638.63;;;10.73
66113;BMP280;52893;52.870;5.822;2024-02-21T14:03:54;100633.66;;;10.66
66113;BMP280;52893;52.870;5.822;2024-02-21T14:06:22;100628.53;;;10.73
66113;BMP280;52893;52.870;5.822;2024-02-21T14:08:49;100626.09;;;10.72
66113;BMP280;52893;52.870;5.822;2024-02-21T14:11:17;100613.59;;;10.70